Time;durP1;ratioP1;P1;durP2;ratioP2;P2;SDS_P1;SDS_P2;PMS_P1;PMS_P2;Temp;Humidity;BMP_temperature;BMP_pressure;BME280_temperature;BME280_humidity;BME280_pressure;Samples;Min_cycle;Max_cycle;Signal;HPM_P1;HPM_P2
2022/03/10 00:02:00;;;;;;;49.93;38.30;;;25.70;89.10;;;;;;1971056;71;21192;-84
2022/03/10 00:04:31;;;;;;;53.60;38.33;;;25.70;88.70;;;;;;1967588;71;21662;-85
2022/03/10 00:07:02;;;;;;;52.30;39.23;;;25.70;90.10;;;;;;1939312;72;21091;-85
2022/03/10 00:09:34;;;;;;;50.43;37.50;;;25.60;89.20;;;;;;1945125;73;21189;-84
2022/03/10 00:12:05;;;;;;;49.93;37.30;;;25.60;89.20;;;;;;1937722;74;21173;-84
2022/03/10 00:14:36;;;;;;;48.73;36.48;;;25.60;88.90;;;;;;1907256;74;21723;-84
2022/03/10 00:17:07;;;;;;;44.85;34.58;;;25.60;88.90;;;;;;1898800;75;21662;-84
2022/03/10 00:19:38;;;;;;;45.33;35.13;;;25.60;88.50;;;;;;1862580;76;21120;-85
2022/03/10 00:22:11;;;;;;;46.45;35.55;;;25.60;88.10;;;;;;1899788;74;21072;-86
2022/03/10 00:24:41;;;;;;;47.40;34.90;;;25.60;88.10;;;;;;1906504;74;21215;-84
2022/03/10 00:27:12;;;;;;;42.13;33.02;;;25.60;87.80;;;;;;1910745;74;21110;-85
2022/03/10 00:29:42;;;;;;;45.98;32.58;;;25.60;87.60;;;;;;1940225;72;21099;-85
2022/03/10 00:32:13;;;;;;;44.40;31.50;;;25.60;87.30;;;;;;1937468;73;21227;-85
2022/03/10 00:34:44;;;;;;;43.87;31.30;;;25.60;87.00;;;;;;1934964;74;21171;-84
2022/03/10 00:37:14;;;;;;;45.40;32.45;;;25.70;86.40;;;;;;1922883;73;21553;-85
2022/03/10 00:39:45;;;;;;;39.88;28.92;;;25.70;86.10;;;;;;1917332;75;21500;-85
2022/03/10 00:42:16;;;;;;;40.20;28.73;;;25.70;85.70;;;;;;1909193;74;21741;-86
2022/03/10 00:44:47;;;;;;;40.50;31.45;;;25.70;85.50;;;;;;1910949;74;21673;-84
2022/03/10 00:47:19;;;;;;;42.08;30.48;;;25.70;85.70;;;;;;1920238;74;22183;-86
2022/03/10 00:49:49;;;;;;;45.90;30.37;;;25.70;85.70;;;;;;1920756;74;21147;-85
2022/03/10 00:52:20;;;;;;;48.05;31.20;;;25.70;85.50;;;;;;1921408;73;21133;-85
2022/03/10 00:54:50;;;;;;;36.73;27.98;;;25.80;86.50;;;;;;1918921;74;21123;-84
2022/03/10 00:57:22;;;;;;;36.48;26.12;;;25.80;85.20;;;;;;1913559;74;21585;-85
2022/03/10 00:59:52;;;;;;;36.28;26.17;;;25.80;84.50;;;;;;1913253;74;21570;-85
2022/03/10 01:02:23;;;;;;;36.75;25.72;;;25.80;84.20;;;;;;1915478;74;21173;-85
2022/03/10 01:04:54;;;;;;;39.73;24.95;;;25.80;84.10;;;;;;1910618;74;21130;-86
2022/03/10 01:07:25;;;;;;;37.83;23.67;;;25.80;83.90;;;;;;1914540;74;21688;-86
2022/03/10 01:09:55;;;;;;;31.40;23.27;;;25.90;83.60;;;;;;1910807;74;21115;-85
2022/03/10 01:12:26;;;;;;;34.33;24.63;;;25.90;83.40;;;;;;1918404;74;21127;-85
2022/03/10 01:14:57;;;;;;;35.55;24.60;;;25.90;83.30;;;;;;1913436;74;21048;-85
2022/03/10 01:17:28;;;;;;;40.08;25.80;;;25.90;83.90;;;;;;1909488;74;21173;-85
2022/03/10 01:19:59;;;;;;;39.63;26.02;;;25.90;83.40;;;;;;1914664;74;21054;-85
2022/03/10 01:22:29;;;;;;;43.58;30.45;;;25.90;83.50;;;;;;1917019;74;21068;-85
2022/03/10 01:25:00;;;;;;;43.90;30.62;;;26.00;84.00;;;;;;1910008;74;21235;-86
2022/03/10 01:27:31;;;;;;;44.48;29.98;;;26.00;84.00;;;;;;1911741;74;21142;-85
2022/03/10 01:30:02;;;;;;;43.13;29.52;;;26.00;83.90;;;;;;1916823;74;21118;-85
2022/03/10 01:32:34;;;;;;;40.25;27.75;;;26.00;83.90;;;;;;1915746;74;21122;-85
2022/03/10 01:35:06;;;;;;;38.65;29.02;;;26.10;83.80;;;;;;1913143;74;21158;-86
2022/03/10 01:37:37;;;;;;;45.50;31.60;;;26.10;83.80;;;;;;1918160;74;21127;-87
2022/03/10 01:40:11;;;;;;;36.83;28.12;;;26.20;84.10;;;;;;1911024;74;21147;-88
2022/03/10 01:42:42;;;;;;;40.50;26.90;;;26.20;83.40;;;;;;1918789;74;21522;-85
2022/03/10 01:45:14;;;;;;;42.03;28.02;;;26.20;83.00;;;;;;1912130;74;21252;-86
2022/03/10 01:47:45;;;;;;;35.23;26.82;;;26.30;83.30;;;;;;1913884;74;21150;-86
2022/03/10 01:50:16;;;;;;;42.75;28.83;;;26.30;82.80;;;;;;1910775;74;21106;-86
2022/03/10 01:52:48;;;;;;;40.38;30.15;;;26.40;82.90;;;;;;1918218;74;21103;-71
2022/03/10 01:55:20;;;;;;;43.23;31.62;;;26.40;83.60;;;;;;1912641;74;21638;-71
2022/03/10 01:57:51;;;;;;;38.98;28.67;;;26.50;83.50;;;;;;1919535;74;21216;-72
2022/03/10 02:00:22;;;;;;;40.60;29.98;;;26.60;83.60;;;;;;1909638;74;21131;-72
2022/03/10 02:02:53;;;;;;;39.63;29.07;;;26.60;83.40;;;;;;1917435;74;21643;-73
2022/03/10 02:05:24;;;;;;;45.15;29.77;;;26.60;83.50;;;;;;1915413;74;21138;-72
2022/03/10 02:10:29;;;;;;;37.23;26.80;;;26.70;82.70;;;;;;1910376;74;21139;-72
2022/03/10 02:13:00;;;;;;;36.55;26.90;;;26.70;82.80;;;;;;1913725;74;21252;-72
2022/03/10 02:18:05;;;;;;;35.88;26.85;;;26.80;82.40;;;;;;1918735;74;21641;-73
2022/03/10 02:20:37;;;;;;;35.83;25.97;;;26.80;81.80;;;;;;1917451;74;21126;-73
2022/03/10 02:23:11;;;;;;;40.38;26.52;;;27.00;81.90;;;;;;1914772;74;21161;-71
2022/03/10 02:25:42;;;;;;;37.10;26.42;;;27.00;82.50;;;;;;1910813;74;21082;-72
2022/03/10 02:28:15;;;;;;;37.58;26.15;;;27.10;81.20;;;;;;1770431;78;21131;-72
2022/03/10 02:30:46;;;;;;;38.05;25.43;;;27.20;81.10;;;;;;1772587;79;21187;-73
2022/03/10 02:33:18;;;;;;;40.30;24.77;;;27.30;80.90;;;;;;1769618;79;21163;-71
2022/03/10 02:35:49;;;;;;;37.73;25.43;;;27.40;80.60;;;;;;1766440;79;21710;-73
2022/03/10 02:38:21;;;;;;;37.98;24.12;;;27.40;80.40;;;;;;1772861;79;21206;-70
2022/03/10 02:40:52;;;;;;;37.30;24.63;;;27.60;81.50;;;;;;1777896;79;21719;-73
2022/03/10 02:43:23;;;;;;;45.25;25.48;;;27.60;80.80;;;;;;1765080;81;21215;-72
2022/03/10 02:45:54;;;;;;;34.98;25.35;;;27.70;80.00;;;;;;1770050;79;21215;-72
2022/03/10 02:48:25;;;;;;;36.85;24.92;;;27.70;79.60;;;;;;1766725;79;21211;-71
2022/03/10 02:50:55;;;;;;;35.40;25.02;;;27.80;79.90;;;;;;1765377;80;21174;-72
2022/03/10 02:53:26;;;;;;;31.87;23.25;;;27.90;79.10;;;;;;1769599;79;21245;-70
2022/03/10 02:55:57;;;;;;;34.25;23.85;;;27.90;79.20;;;;;;1764509;79;21203;-70
2022/03/10 02:58:27;;;;;;;31.97;23.92;;;28.10;78.60;;;;;;1778829;76;21950;-71
2022/03/10 03:00:58;;;;;;;32.25;23.67;;;28.10;78.80;;;;;;1856484;75;21139;-70
2022/03/10 03:03:29;;;;;;;32.10;21.97;;;28.20;78.10;;;;;;1854357;76;21715;-71
2022/03/10 03:06:00;;;;;;;31.97;21.90;;;28.30;76.40;;;;;;1833584;78;21893;-71
2022/03/10 03:08:30;;;;;;;32.05;21.48;;;28.50;76.80;;;;;;1827873;77;21673;-70
2022/03/10 03:11:01;;;;;;;33.63;21.12;;;28.70;75.90;;;;;;1820183;77;21148;-72
2022/03/10 03:13:32;;;;;;;33.05;20.97;;;28.80;74.00;;;;;;1864231;76;21096;-70
2022/03/10 03:16:03;;;;;;;31.00;20.95;;;28.90;74.20;;;;;;1854879;76;21784;-68
2022/03/10 03:18:34;;;;;;;32.53;21.40;;;29.00;73.20;;;;;;1853665;76;21147;-71
2022/03/10 03:21:05;;;;;;;30.37;20.15;;;29.10;73.10;;;;;;1829863;78;21156;-71
2022/03/10 03:23:36;;;;;;;29.75;20.02;;;29.20;73.40;;;;;;1860589;76;21274;-71
2022/03/10 03:26:06;;;;;;;28.87;21.17;;;29.30;72.40;;;;;;1863135;76;21213;-71
2022/03/10 03:28:38;;;;;;;27.22;19.70;;;29.40;71.90;;;;;;1853790;76;21156;-70
2022/03/10 03:31:09;;;;;;;30.27;20.55;;;29.50;72.70;;;;;;1853179;77;21162;-73
2022/03/10 03:33:41;;;;;;;33.48;20.88;;;29.60;70.70;;;;;;1861892;77;21122;-73
2022/03/10 03:36:11;;;;;;;27.35;20.88;;;29.80;71.10;;;;;;1851026;77;21122;-70
2022/03/10 03:38:42;;;;;;;25.75;19.57;;;29.80;71.30;;;;;;1860372;77;22351;-72
2022/03/10 03:41:13;;;;;;;26.82;20.35;;;29.90;70.20;;;;;;1834850;76;21248;-70
2022/03/10 03:43:44;;;;;;;33.38;20.30;;;30.10;68.70;;;;;;1858014;76;21169;-72
2022/03/10 03:46:15;;;;;;;32.83;19.52;;;30.20;67.80;;;;;;1858904;77;21560;-72
2022/03/10 03:48:46;;;;;;;25.95;20.80;;;30.40;68.90;;;;;;1858087;76;21146;-71
2022/03/10 03:51:17;;;;;;;30.80;20.12;;;30.50;67.70;;;;;;1851242;75;21159;-72
2022/03/10 03:53:48;;;;;;;30.62;20.95;;;30.60;67.40;;;;;;1852465;76;21240;-72
2022/03/10 03:56:19;;;;;;;29.23;19.60;;;30.70;66.50;;;;;;1853688;76;21204;-71
2022/03/10 03:58:50;;;;;;;30.00;19.55;;;30.70;66.60;;;;;;1858895;77;21505;-71
2022/03/10 04:01:21;;;;;;;25.55;19.48;;;30.70;65.90;;;;;;1857855;77;22429;-71
2022/03/10 04:03:52;;;;;;;26.50;19.30;;;30.80;66.60;;;;;;1860087;77;21110;-72
2022/03/10 04:06:24;;;;;;;29.45;21.00;;;30.90;68.30;;;;;;1856517;77;21067;-71
2022/03/10 04:08:55;;;;;;;29.42;18.37;;;30.90;65.20;;;;;;1851526;77;21157;-73
2022/03/10 04:11:26;;;;;;;26.42;18.23;;;31.10;64.40;;;;;;1853659;77;21091;-71
2022/03/10 04:13:56;;;;;;;26.93;18.40;;;31.20;65.50;;;;;;1854738;77;21126;-71
2022/03/10 04:16:27;;;;;;;30.77;17.85;;;31.20;64.60;;;;;;1854128;77;21790;-72
2022/03/10 04:18:58;;;;;;;24.75;17.55;;;31.40;65.30;;;;;;1852581;77;21075;-71
2022/03/10 04:21:28;;;;;;;24.77;16.82;;;31.40;64.30;;;;;;1847529;77;21189;-71
2022/03/10 04:23:59;;;;;;;27.30;17.02;;;31.50;63.70;;;;;;1843787;77;21165;-71
2022/03/10 04:26:30;;;;;;;22.73;16.32;;;31.60;63.50;;;;;;1851689;77;21247;-72
2022/03/10 04:29:01;;;;;;;23.15;16.80;;;31.60;63.30;;;;;;1841460;76;21174;-72
2022/03/10 04:31:32;;;;;;;22.40;16.62;;;31.70;63.20;;;;;;1829904;78;21287;-72
2022/03/10 04:34:04;;;;;;;25.57;16.05;;;31.70;62.20;;;;;;1823633;78;21100;-73
2022/03/10 04:36:34;;;;;;;22.82;15.88;;;31.80;62.10;;;;;;1830515;78;21135;-73
2022/03/10 04:39:06;;;;;;;19.27;16.00;;;31.80;62.00;;;;;;1826936;77;21202;-72
2022/03/10 04:41:36;;;;;;;20.45;16.10;;;31.90;62.00;;;;;;1831403;78;21138;-71
2022/03/10 04:44:07;;;;;;;22.55;16.48;;;32.00;61.90;;;;;;1828394;77;21178;-72
2022/03/10 04:46:39;;;;;;;20.85;16.42;;;32.00;61.50;;;;;;1832328;77;21933;-71
2022/03/10 04:49:10;;;;;;;21.52;15.75;;;32.00;61.70;;;;;;1833486;77;21091;-72
2022/03/10 04:51:41;;;;;;;26.10;15.93;;;32.00;61.80;;;;;;1837099;76;21147;-71
2022/03/10 04:54:12;;;;;;;23.15;16.45;;;32.10;60.60;;;;;;1822298;78;21179;-69
2022/03/10 04:56:43;;;;;;;22.80;16.12;;;32.10;60.60;;;;;;1832572;77;21602;-73
2022/03/10 04:59:14;;;;;;;20.32;16.25;;;32.20;60.00;;;;;;1826306;76;21213;-71
2022/03/10 05:01:44;;;;;;;20.37;15.23;;;32.20;59.90;;;;;;1832073;76;21159;-71
2022/03/10 05:04:15;;;;;;;19.17;15.28;;;32.30;61.50;;;;;;1817950;77;21692;-72
2022/03/10 05:06:46;;;;;;;21.95;16.02;;;32.20;59.40;;;;;;1820995;78;21701;-71
2022/03/10 05:09:17;;;;;;;24.02;15.93;;;32.30;59.10;;;;;;1827325;77;21653;-70
2022/03/10 05:11:48;;;;;;;19.95;15.00;;;32.30;60.90;;;;;;1833177;77;21202;-70
2022/03/10 05:14:18;;;;;;;19.87;15.35;;;32.30;58.20;;;;;;1829532;77;21256;-69
2022/03/10 05:16:49;;;;;;;24.80;16.35;;;32.30;59.70;;;;;;1828587;78;21170;-69
2022/03/10 05:19:20;;;;;;;20.85;15.75;;;32.30;58.70;;;;;;1831738;77;21201;-69
2022/03/10 05:21:52;;;;;;;22.80;14.20;;;32.40;59.00;;;;;;1823276;77;21282;-69
2022/03/10 05:24:22;;;;;;;19.95;15.28;;;32.50;57.80;;;;;;1832621;77;21131;-70
2022/03/10 05:26:53;;;;;;;17.82;14.00;;;32.60;57.80;;;;;;1832203;77;21142;-70
2022/03/10 05:29:24;;;;;;;20.32;13.60;;;32.70;57.50;;;;;;1842050;75;21104;-71
2022/03/10 05:31:54;;;;;;;20.30;13.28;;;32.80;57.00;;;;;;1809579;78;21213;-71
2022/03/10 05:34:25;;;;;;;19.55;14.10;;;32.80;56.30;;;;;;1799230;79;21285;-70
2022/03/10 05:36:56;;;;;;;16.80;12.93;;;32.80;57.30;;;;;;1825958;77;21103;-70
2022/03/10 05:39:27;;;;;;;15.63;13.43;;;32.90;56.40;;;;;;1816744;78;21273;-70
2022/03/10 05:41:58;;;;;;;15.53;12.07;;;32.90;57.10;;;;;;1829558;77;21971;-72
2022/03/10 05:44:29;;;;;;;20.20;12.58;;;32.90;55.00;;;;;;1828421;77;21242;-72
2022/03/10 05:47:00;;;;;;;19.45;14.18;;;32.90;55.50;;;;;;1829870;78;21143;-72
2022/03/10 05:49:31;;;;;;;19.75;14.55;;;33.00;57.10;;;;;;1853106;76;21128;-72
2022/03/10 05:52:02;;;;;;;19.12;13.75;;;33.00;56.10;;;;;;1854875;76;21168;-72
2022/03/10 05:54:33;;;;;;;18.12;14.05;;;33.00;56.00;;;;;;1863990;75;21653;-84
2022/03/10 05:57:04;;;;;;;22.20;13.60;;;33.00;56.70;;;;;;1862001;76;21166;-85
2022/03/10 05:59:35;;;;;;;20.57;12.88;;;33.00;57.00;;;;;;1859443;76;21080;-85
2022/03/10 06:02:05;;;;;;;18.35;12.70;;;33.00;55.10;;;;;;1860701;76;21578;-85
2022/03/10 06:04:36;;;;;;;18.42;11.95;;;33.00;56.50;;;;;;1861986;76;21155;-85
2022/03/10 06:07:07;;;;;;;14.13;11.68;;;33.00;57.10;;;;;;1855119;76;21198;-85
2022/03/10 06:09:38;;;;;;;20.23;13.10;;;33.00;54.10;;;;;;1861268;76;21670;-72
2022/03/10 06:12:10;;;;;;;15.50;12.05;;;33.10;55.60;;;;;;1864213;76;21225;-72
2022/03/10 06:14:41;;;;;;;15.65;12.10;;;33.10;54.30;;;;;;1860610;76;21123;-72
2022/03/10 06:17:12;;;;;;;17.77;11.80;;;33.20;53.60;;;;;;1856628;76;21127;-71
2022/03/10 06:19:43;;;;;;;16.25;11.95;;;33.20;53.50;;;;;;1863457;76;21253;-72
2022/03/10 06:22:16;;;;;;;14.85;11.90;;;33.30;53.70;;;;;;1855912;76;21147;-71
2022/03/10 06:24:47;;;;;;;16.97;11.60;;;33.30;53.30;;;;;;1858093;76;21668;-72
2022/03/10 06:27:22;;;;;;;16.23;12.23;;;33.20;52.70;;;;;;1859609;76;21603;-75
2022/03/10 06:29:53;;;;;;;18.00;11.83;;;33.30;53.30;;;;;;1849953;76;21264;-70
2022/03/10 06:32:26;;;;;;;17.70;12.78;;;33.30;53.40;;;;;;1796351;78;21643;-71
2022/03/10 06:34:59;;;;;;;17.77;12.18;;;33.30;53.30;;;;;;1840437;77;21647;-72
2022/03/10 06:37:29;;;;;;;15.05;11.55;;;33.30;54.10;;;;;;1834452;78;21163;-72
2022/03/10 06:40:02;;;;;;;15.78;11.12;;;33.30;53.30;;;;;;1834162;78;21101;-72
2022/03/10 06:42:33;;;;;;;17.25;12.60;;;33.40;55.60;;;;;;1840339;78;21080;-73
2022/03/10 06:45:04;;;;;;;16.42;12.33;;;33.40;53.60;;;;;;1834671;78;21183;-74
2022/03/10 06:47:36;;;;;;;19.67;12.95;;;33.50;54.00;;;;;;1836443;78;21155;-72
2022/03/10 06:50:08;;;;;;;18.23;14.07;;;33.50;54.80;;;;;;1838195;78;21156;-71
2022/03/10 06:52:39;;;;;;;16.93;13.05;;;33.50;53.60;;;;;;1839526;78;21137;-71
2022/03/10 06:55:10;;;;;;;15.53;12.63;;;33.50;53.50;;;;;;1805085;78;21221;-70
2022/03/10 06:57:40;;;;;;;14.15;11.97;;;33.50;53.30;;;;;;1837710;77;21139;-70
2022/03/10 07:00:12;;;;;;;21.73;13.95;;;33.50;55.90;;;;;;1842036;77;21933;-71
2022/03/10 07:02:42;;;;;;;16.45;13.22;;;33.50;54.10;;;;;;1836011;78;21626;-71
2022/03/10 07:05:13;;;;;;;19.60;13.70;;;33.50;54.20;;;;;;1835126;78;21137;-72
2022/03/10 07:07:44;;;;;;;22.13;15.03;;;33.50;54.30;;;;;;1836932;78;21155;-73
2022/03/10 07:10:15;;;;;;;17.50;13.75;;;33.50;54.70;;;;;;1834814;78;21767;-72
2022/03/10 07:12:45;;;;;;;20.43;12.93;;;33.50;54.50;;;;;;1831263;77;21253;-72
2022/03/10 07:15:16;;;;;;;19.75;14.25;;;33.50;54.30;;;;;;1833530;78;21225;-72
2022/03/10 07:17:47;;;;;;;19.62;13.53;;;33.60;54.80;;;;;;1837596;78;21147;-72
2022/03/10 07:20:19;;;;;;;18.70;12.80;;;33.50;53.50;;;;;;1826126;77;21677;-71
2022/03/10 07:22:50;;;;;;;16.10;12.50;;;33.50;54.10;;;;;;1827148;77;21111;-72
2022/03/10 07:25:21;;;;;;;27.87;13.62;;;33.40;54.30;;;;;;1834180;78;21175;-71
2022/03/10 07:27:52;;;;;;;18.60;14.23;;;33.40;54.80;;;;;;1831542;77;21158;-71
2022/03/10 07:30:22;;;;;;;22.98;13.58;;;33.40;54.40;;;;;;1845075;76;22143;-71
2022/03/10 07:32:53;;;;;;;17.95;13.10;;;33.40;53.60;;;;;;1859352;76;21508;-71
2022/03/10 07:35:24;;;;;;;20.70;13.18;;;33.40;54.30;;;;;;1853787;76;21222;-72
2022/03/10 07:37:58;;;;;;;18.40;13.15;;;33.40;54.70;;;;;;1862582;76;21053;-72
2022/03/10 07:40:28;;;;;;;17.05;13.60;;;33.40;54.70;;;;;;1863787;76;21159;-72
2022/03/10 07:43:00;;;;;;;19.48;13.50;;;33.30;55.90;;;;;;1856683;76;21221;-71
2022/03/10 07:45:31;;;;;;;17.85;13.62;;;33.40;54.40;;;;;;1863165;76;21147;-72
2022/03/10 07:48:03;;;;;;;21.48;13.32;;;33.40;54.60;;;;;;1861888;76;21132;-70
2022/03/10 07:50:34;;;;;;;16.60;12.75;;;33.40;54.30;;;;;;1862222;76;21241;-71
2022/03/10 07:53:05;;;;;;;18.05;13.55;;;33.40;54.70;;;;;;1863241;76;21193;-71
2022/03/10 07:55:36;;;;;;;15.28;12.93;;;33.40;54.40;;;;;;1861603;76;21155;-72
2022/03/10 07:58:07;;;;;;;17.75;13.80;;;33.40;54.90;;;;;;1860662;76;21156;-71
2022/03/10 08:00:38;;;;;;;18.75;13.83;;;33.40;54.80;;;;;;1859128;75;21777;-72
2022/03/10 08:03:09;;;;;;;18.17;13.53;;;33.40;54.50;;;;;;1860513;76;21084;-72
2022/03/10 08:05:40;;;;;;;16.25;13.30;;;33.30;55.00;;;;;;1853726;76;22335;-72
2022/03/10 08:08:13;;;;;;;19.95;14.53;;;33.30;54.70;;;;;;1856769;75;21171;-72
2022/03/10 08:10:43;;;;;;;16.93;13.75;;;33.30;55.30;;;;;;1861365;76;21140;-73
2022/03/10 08:13:13;;;;;;;22.45;14.23;;;33.20;55.60;;;;;;1856728;76;21167;-73
2022/03/10 08:15:44;;;;;;;18.75;14.07;;;33.20;55.00;;;;;;1853482;76;21629;-72
2022/03/10 08:18:16;;;;;;;16.70;13.72;;;33.20;55.90;;;;;;1857219;76;21080;-73
2022/03/10 08:20:47;;;;;;;14.87;13.30;;;33.20;55.00;;;;;;1861150;76;21143;-72
2022/03/10 08:23:18;;;;;;;16.62;12.93;;;33.10;55.20;;;;;;1863354;76;21099;-72
2022/03/10 08:25:50;;;;;;;14.95;13.35;;;33.20;55.10;;;;;;1854574;76;21048;-72
2022/03/10 08:28:20;;;;;;;16.12;13.38;;;33.10;55.40;;;;;;1860769;76;21241;-72
2022/03/10 08:30:51;;;;;;;17.05;12.75;;;33.00;55.40;;;;;;1862631;75;21144;-71
2022/03/10 08:33:22;;;;;;;16.65;13.90;;;33.00;54.40;;;;;;1861915;75;21161;-72
2022/03/10 08:35:53;;;;;;;17.10;13.90;;;33.00;55.40;;;;;;1867139;75;21808;-71
2022/03/10 08:38:25;;;;;;;20.27;13.93;;;33.00;54.90;;;;;;1863521;75;21190;-72
2022/03/10 08:40:55;;;;;;;17.07;13.62;;;33.00;55.80;;;;;;1861200;75;21574;-72
2022/03/10 08:43:28;;;;;;;15.60;13.78;;;33.00;55.20;;;;;;1865984;75;21225;-72
2022/03/10 08:46:01;;;;;;;18.40;13.20;;;33.00;55.60;;;;;;1863787;75;21221;-72
2022/03/10 08:48:32;;;;;;;15.13;13.58;;;33.00;55.40;;;;;;1859413;75;21104;-71
2022/03/10 08:51:04;;;;;;;16.85;14.40;;;33.00;55.40;;;;;;1861990;75;21174;-72
2022/03/10 08:53:36;;;;;;;16.05;14.07;;;33.00;54.70;;;;;;1861651;75;21175;-73
2022/03/10 08:56:07;;;;;;;16.37;13.68;;;33.00;54.20;;;;;;1858382;75;21169;-71
2022/03/10 08:58:39;;;;;;;22.70;17.48;;;33.10;54.60;;;;;;1861248;75;21191;-72
2022/03/10 09:01:09;;;;;;;16.62;13.62;;;33.10;54.40;;;;;;1858531;75;21167;-73
2022/03/10 09:03:42;;;;;;;16.42;14.68;;;33.10;54.80;;;;;;1854868;75;22145;-73
2022/03/10 09:06:14;;;;;;;34.00;17.00;;;33.20;55.20;;;;;;1860350;75;21195;-72
2022/03/10 09:08:45;;;;;;;18.67;14.93;;;33.10;54.80;;;;;;1863345;75;21239;-72
2022/03/10 09:11:16;;;;;;;22.10;15.43;;;33.10;55.00;;;;;;1863384;75;21619;-72
2022/03/10 09:13:50;;;;;;;17.48;15.05;;;33.10;54.90;;;;;;1864773;75;21156;-72
2022/03/10 09:16:21;;;;;;;20.65;15.23;;;33.00;55.50;;;;;;1864171;75;21245;-72
2022/03/10 09:18:53;;;;;;;17.85;14.70;;;33.00;55.00;;;;;;1862811;75;21158;-72
2022/03/10 09:21:24;;;;;;;26.15;14.95;;;32.90;55.10;;;;;;1868465;76;21170;-72
2022/03/10 09:23:55;;;;;;;18.00;15.05;;;32.90;55.60;;;;;;1863668;76;21179;-72
2022/03/10 09:26:25;;;;;;;18.40;14.93;;;32.80;55.70;;;;;;1864542;76;21757;-73
2022/03/10 09:28:56;;;;;;;19.87;14.63;;;32.80;55.80;;;;;;1866748;76;21128;-73
2022/03/10 09:31:27;;;;;;;18.35;14.63;;;32.80;55.50;;;;;;1872345;75;21139;-73
2022/03/10 09:33:58;;;;;;;17.73;14.95;;;32.80;55.50;;;;;;1874149;76;21107;-71
2022/03/10 09:36:29;;;;;;;20.97;13.53;;;32.70;56.00;;;;;;1871208;76;21640;-72
2022/03/10 09:38:59;;;;;;;19.32;14.47;;;32.70;55.50;;;;;;1824587;78;21156;-71
2022/03/10 09:41:30;;;;;;;19.27;14.33;;;32.70;56.20;;;;;;1800484;79;21567;-72
2022/03/10 09:44:02;;;;;;;26.40;18.00;;;32.70;55.50;;;;;;1797701;79;21694;-73
2022/03/10 09:46:33;;;;;;;17.35;14.35;;;32.70;55.50;;;;;;1860487;76;21116;-72
2022/03/10 09:49:04;;;;;;;16.17;14.55;;;32.70;56.00;;;;;;1859840;76;21179;-72
2022/03/10 09:51:34;;;;;;;22.62;14.83;;;32.70;56.00;;;;;;1865696;76;21269;-71
2022/03/10 09:54:05;;;;;;;18.92;14.15;;;32.60;55.90;;;;;;1866723;76;21104;-72
2022/03/10 09:56:37;;;;;;;18.90;14.70;;;32.60;55.90;;;;;;1863353;76;21087;-72
2022/03/10 09:59:09;;;;;;;24.55;16.77;;;32.60;56.20;;;;;;1863797;76;21229;-73
2022/03/10 10:01:41;;;;;;;20.70;16.37;;;32.60;56.10;;;;;;1862240;76;21623;-73
2022/03/10 10:04:14;;;;;;;19.50;14.70;;;32.50;56.30;;;;;;1852923;76;21216;-72
2022/03/10 10:06:46;;;;;;;19.65;15.60;;;32.50;56.70;;;;;;1869378;76;21135;-73
2022/03/10 10:09:20;;;;;;;20.57;16.75;;;32.50;56.20;;;;;;1829425;77;21647;-87
2022/03/10 10:11:53;;;;;;;22.13;15.55;;;32.50;56.40;;;;;;1831417;77;21089;-86
2022/03/10 10:14:27;;;;;;;18.85;14.95;;;32.40;56.80;;;;;;1807653;78;21211;-87
2022/03/10 10:16:59;;;;;;;18.17;15.30;;;32.40;57.00;;;;;;1812867;77;21290;-86
2022/03/10 10:19:34;;;;;;;26.40;14.70;;;32.30;57.20;;;;;;1827997;77;21161;-86
2022/03/10 10:22:08;;;;;;;21.12;15.10;;;32.30;57.30;;;;;;1851317;76;21139;-87
2022/03/10 10:24:39;;;;;;;18.62;14.90;;;32.30;57.30;;;;;;1856725;76;21168;-87
2022/03/10 10:27:13;;;;;;;17.77;14.28;;;32.20;57.50;;;;;;1864911;76;21088;-87
2022/03/10 10:29:47;;;;;;;21.02;15.23;;;32.20;57.70;;;;;;1865441;75;21127;-87
2022/03/10 10:32:21;;;;;;;20.37;15.23;;;32.20;57.70;;;;;;1860162;75;21191;-87
2022/03/10 10:34:55;;;;;;;20.10;14.45;;;32.20;57.80;;;;;;1862345;75;21075;-86
2022/03/10 10:37:26;;;;;;;22.95;14.90;;;32.20;58.10;;;;;;1807923;78;21189;-87
2022/03/10 10:39:59;;;;;;;18.60;14.95;;;32.10;58.20;;;;;;1864927;75;21127;-87
2022/03/10 10:42:36;;;;;;;17.10;14.98;;;32.10;58.10;;;;;;1816314;77;21108;-88
2022/03/10 10:45:09;;;;;;;21.93;16.00;;;32.10;58.20;;;;;;1870037;76;21253;-87
2022/03/10 10:47:42;;;;;;;19.02;14.43;;;32.00;58.30;;;;;;1859935;76;21156;-87
2022/03/10 10:50:13;;;;;;;17.73;15.10;;;32.00;58.40;;;;;;1840308;77;21170;-86
2022/03/10 10:52:44;;;;;;;24.10;15.98;;;31.90;58.50;;;;;;1838000;77;21227;-87
2022/03/10 10:55:15;;;;;;;19.70;13.93;;;32.00;58.70;;;;;;1829779;77;21142;-87
2022/03/10 10:57:48;;;;;;;19.17;15.83;;;31.90;58.80;;;;;;1836559;75;21112;-87
2022/03/10 11:00:19;;;;;;;22.52;16.40;;;31.90;59.00;;;;;;1709855;82;21442;-86
2022/03/10 11:02:51;;;;;;;21.90;17.02;;;31.90;59.00;;;;;;1736930;81;21210;-87
2022/03/10 11:05:23;;;;;;;20.72;16.37;;;31.80;59.00;;;;;;1739497;81;21080;-86
2022/03/10 11:07:56;;;;;;;19.07;15.25;;;31.80;59.20;;;;;;1742725;81;21309;-86
2022/03/10 11:10:29;;;;;;;20.15;15.50;;;31.80;59.30;;;;;;1746097;81;21788;-86
2022/03/10 11:13:01;;;;;;;24.15;16.60;;;31.70;59.30;;;;;;1750100;81;21226;-86
2022/03/10 11:15:32;;;;;;;22.85;17.40;;;31.70;59.50;;;;;;1752830;81;21288;-86
2022/03/10 11:18:05;;;;;;;41.15;28.75;;;31.70;59.50;;;;;;1747062;81;21670;-89
2022/03/10 11:20:37;;;;;;;28.50;21.33;;;31.70;59.60;;;;;;1746654;82;21261;-83
2022/03/10 11:23:09;;;;;;;22.37;17.12;;;31.70;59.90;;;;;;1743708;82;21163;-88
2022/03/10 11:25:43;;;;;;;24.50;16.25;;;31.60;59.90;;;;;;1742754;82;21281;-88
2022/03/10 11:28:17;;;;;;;22.58;16.20;;;31.60;60.10;;;;;;1742653;82;21211;-88
2022/03/10 11:30:51;;;;;;;24.35;17.37;;;31.50;60.30;;;;;;1772250;76;21276;-89
2022/03/10 11:33:23;;;;;;;21.90;18.05;;;31.50;60.50;;;;;;1878125;75;21111;-86
2022/03/10 11:35:54;;;;;;;25.08;17.60;;;31.50;60.60;;;;;;1888060;75;21154;-86
2022/03/10 11:38:31;;;;;;;21.68;16.30;;;31.50;61.00;;;;;;1891534;75;21095;-86
2022/03/10 11:41:01;;;;;;;23.05;17.07;;;31.50;61.00;;;;;;1885312;75;21099;-86
2022/03/10 11:43:34;;;;;;;22.02;17.52;;;31.50;61.00;;;;;;1882136;75;21215;-88
2022/03/10 11:46:08;;;;;;;21.90;16.57;;;31.40;61.20;;;;;;1886826;75;21158;-88
2022/03/10 11:48:39;;;;;;;20.92;17.27;;;31.40;61.00;;;;;;1882783;75;21359;-87
2022/03/10 11:51:13;;;;;;;24.05;17.73;;;31.40;60.90;;;;;;1830214;78;21115;-88
2022/03/10 11:53:46;;;;;;;21.15;18.20;;;31.30;60.70;;;;;;1893222;75;21092;-85
2022/03/10 11:56:17;;;;;;;22.40;17.27;;;31.30;60.60;;;;;;1892386;74;21095;-87
2022/03/10 11:58:48;;;;;;;21.17;16.82;;;31.30;61.00;;;;;;1894958;74;21999;-87
2022/03/10 12:01:20;;;;;;;27.27;18.55;;;31.30;61.30;;;;;;1885072;74;21092;-87
2022/03/10 12:03:51;;;;;;;25.20;17.90;;;31.30;61.60;;;;;;1865941;77;21135;-86
2022/03/10 12:06:24;;;;;;;29.75;20.15;;;31.30;61.90;;;;;;1879479;75;21139;-86
2022/03/10 12:08:57;;;;;;;25.72;18.95;;;31.20;62.10;;;;;;1879143;75;21080;-85
2022/03/10 12:11:30;;;;;;;25.50;19.15;;;31.20;62.30;;;;;;1887411;75;21191;-85
2022/03/10 12:14:03;;;;;;;28.25;21.57;;;31.20;62.40;;;;;;1871631;75;21140;-87
2022/03/10 12:16:35;;;;;;;26.23;20.23;;;31.20;62.70;;;;;;1864667;75;21936;-88
2022/03/10 12:19:05;;;;;;;24.95;20.92;;;31.20;62.80;;;;;;1865538;76;21096;-87
2022/03/10 12:21:36;;;;;;;25.88;20.32;;;31.20;63.00;;;;;;1902304;75;21090;-86
2022/03/10 12:24:07;;;;;;;28.50;21.73;;;31.20;63.10;;;;;;1889193;75;21154;-85
2022/03/10 12:26:43;;;;;;;29.82;19.90;;;31.20;63.30;;;;;;1897820;75;21155;-86
2022/03/10 12:29:14;;;;;;;24.47;18.90;;;31.20;63.30;;;;;;1895418;75;21178;-85
2022/03/10 12:31:46;;;;;;;24.72;20.35;;;31.10;63.40;;;;;;1882224;75;21586;-87
2022/03/10 12:34:17;;;;;;;25.32;19.27;;;31.10;63.70;;;;;;1877767;75;21182;-87
2022/03/10 12:36:51;;;;;;;25.92;18.82;;;31.00;63.60;;;;;;1863214;76;21132;-88
2022/03/10 12:39:23;;;;;;;24.05;18.67;;;31.00;63.70;;;;;;1853129;76;21115;-87
2022/03/10 12:42:01;;;;;;;28.60;18.75;;;31.00;63.80;;;;;;1844724;76;21141;-86
2022/03/10 12:44:29;;;;;;;25.40;18.50;;;31.00;64.00;;;;;;1854283;76;21718;-86
2022/03/10 12:47:03;;;;;;;22.77;18.42;;;31.00;63.80;;;;;;1869263;76;21293;-86
2022/03/10 12:49:36;;;;;;;31.17;19.50;;;30.90;63.90;;;;;;1808101;78;21214;-87
2022/03/10 12:52:09;;;;;;;24.15;19.07;;;30.90;64.00;;;;;;1833388;76;21171;-86
2022/03/10 12:54:42;;;;;;;26.57;19.35;;;30.90;63.90;;;;;;1809415;78;21669;-85